TimeCST,TemperatureF,Dew PointF,Humidity,Sea Level PressureIn,VisibilityMPH,Wind Direction,Wind SpeedMPH,Gust SpeedMPH,PrecipitationIn,Events,Conditions,WindDirDegrees,DateUTC
12:53 AM,48.0,41.0,77,30.19,9.0,North,13.8,-,N/A,,Overcast,360,2013-01-02 06:53:00
1:53 AM,46.9,39.9,77,30.19,9.0,North,15.0,-,N/A,,Partly Cloudy,360,2013-01-02 07:53:00
2:53 AM,46.9,39.9,77,30.20,9.0,North,17.3,-,N/A,,Overcast,360,2013-01-02 08:53:00
3:29 AM,46.4,39.2,76,30.21,9.0,North,17.3,-,N/A,,Overcast,360,2013-01-02 09:29:00
3:53 AM,46.0,39.9,79,30.20,8.0,North,16.1,-,N/A,,Mostly Cloudy,360,2013-01-02 09:53:00
4:10 AM,46.4,39.2,76,30.20,8.0,North,15.0,-,N/A,,Mostly Cloudy,360,2013-01-02 10:10:00
4:30 AM,46.4,37.4,71,30.22,9.0,North,18.4,26.5,N/A,,Scattered Clouds,350,2013-01-02 10:30:00
4:53 AM,45.0,37.9,76,30.21,8.0,North,20.7,25.3,N/A,,Partly Cloudy,360,2013-01-02 10:53:00
5:53 AM,44.6,37.4,76,30.23,8.0,North,16.1,-,N/A,,Overcast,360,2013-01-02 11:53:00
6:01 AM,44.6,37.4,76,30.23,8.0,North,13.8,-,N/A,,Mostly Cloudy,360,2013-01-02 12:01:00
6:53 AM,44.1,37.9,79,30.24,8.0,North,15.0,-,N/A,,Overcast,360,2013-01-02 12:53:00
7:53 AM,44.1,37.9,79,30.25,8.0,North,15.0,-,0.00,,Overcast,360,2013-01-02 13:53:00
8:53 AM,43.0,37.9,82,30.28,6.0,North,16.1,-,0.00,Rain,Light Rain,360,2013-01-02 14:53:00
9:53 AM,43.0,39.0,86,30.30,5.0,North,12.7,-,0.00,Rain,Light Rain,350,2013-01-02 15:53:00
10:53 AM,43.0,37.9,82,30.30,6.0,North,13.8,-,0.01,Rain,Light Rain,360,2013-01-02 16:53:00
11:53 AM,43.0,39.0,86,30.28,6.0,North,10.4,-,0.01,Rain,Light Rain,350,2013-01-02 17:53:00
1:53 PM,43.0,39.0,86,30.26,5.0,NNW,12.7,-,0.02,Rain,Light Rain,340,2013-01-02 19:53:00
2:53 PM,42.8,37.4,81,30.24,5.0,North,11.5,-,N/A,Rain,Light Rain,350,2013-01-02 20:53:00
3:53 PM,43.0,37.9,82,30.24,5.0,North,13.8,-,0.02,Rain,Light Rain,350,2013-01-02 21:53:00
4:53 PM,43.0,37.9,82,30.26,5.0,NNW,11.5,-,0.01,Rain,Light Rain,340,2013-01-02 22:53:00
5:53 PM,42.1,37.9,85,30.25,8.0,North,10.4,-,0.01,Rain,Light Rain,360,2013-01-02 23:53:00
6:53 PM,42.1,37.9,85,30.27,7.0,North,10.4,-,0.01,Rain,Light Rain,360,2013-01-03 00:53:00
7:53 PM,42.1,37.9,85,30.28,6.0,North,6.9,-,0.02,Rain,Light Rain,360,2013-01-03 01:53:00
8:53 PM,43.0,39.0,86,30.29,6.0,North,5.8,-,0.00,,Overcast,350,2013-01-03 02:53:00
9:53 PM,43.0,39.0,86,30.30,7.0,NNW,10.4,-,N/A,,Overcast,330,2013-01-03 03:53:00
10:53 PM,44.1,37.9,79,30.30,7.0,North,6.9,-,N/A,,Overcast,350,2013-01-03 04:53:00
11:53 PM,44.1,37.9,79,30.30,8.0,North,9.2,-,N/A,,Overcast,360,2013-01-03 05:53:00